createdAt,value
2016-07-04T00:00:13.157Z,51.08
2016-07-04T00:01:13.153Z,51.25
2016-07-04T00:02:13.155Z,51.46
2016-07-04T00:03:13.155Z,51.56
2016-07-04T00:04:13.154Z,51.28
2016-07-04T00:05:13.157Z,50.41
2016-07-04T00:06:13.155Z,50.12
2016-07-04T00:07:13.163Z,50.51
2016-07-04T00:08:13.158Z,50.32
2016-07-04T00:09:13.162Z,50.6
2016-07-04T00:10:13.166Z,50.51
2016-07-04T00:11:13.159Z,50.7
2016-07-04T00:12:13.166Z,50.12
2016-07-04T00:13:13.169Z,50.7
2016-07-04T00:14:13.170Z,50.22
2016-07-04T00:15:13.172Z,50.41
2016-07-04T00:16:13.170Z,50.51
2016-07-04T00:17:13.170Z,50.51
2016-07-04T00:18:13.522Z,50.51
2016-07-04T00:19:13.177Z,50.41
2016-07-04T00:20:13.172Z,50.32
2016-07-04T00:21:13.169Z,49.74
2016-07-04T00:22:13.172Z,49.55
2016-07-04T00:23:13.177Z,49.36
2016-07-04T00:24:13.177Z,49.74
2016-07-04T00:25:13.178Z,49.45
2016-07-04T00:26:13.175Z,49.74
2016-07-04T00:27:13.175Z,49.45
2016-07-04T00:28:13.181Z,49.65
2016-07-04T00:29:13.182Z,49.45
2016-07-04T00:30:13.197Z,49.55
2016-07-04T00:31:13.186Z,49.45
2016-07-04T00:32:13.185Z,49.74
2016-07-04T00:33:13.190Z,49.74
2016-07-04T00:34:13.185Z,49.84
2016-07-04T00:35:13.190Z,50.22
2016-07-04T00:36:13.190Z,50.22
2016-07-04T00:37:13.190Z,50.32
2016-07-04T00:38:13.190Z,50.03
2016-07-04T00:39:13.190Z,50.22
2016-07-04T00:40:12.566Z,50.22
2016-07-04T00:41:13.199Z,50.7
2016-07-04T00:42:13.198Z,50.12
2016-07-04T00:43:13.200Z,50.6
2016-07-04T00:44:13.198Z,51.56
2016-07-04T00:45:13.202Z,51.08
2016-07-04T00:46:13.198Z,51.28
2016-07-04T00:47:13.203Z,51.37
2016-07-04T00:48:13.202Z,51.95
2016-07-04T00:49:13.201Z,51.75
2016-07-04T00:50:13.202Z,52.42
2016-07-04T00:51:13.197Z,52.52
2016-07-04T00:52:13.207Z,52.71
2016-07-04T00:53:13.208Z,53.16
2016-07-04T00:54:13.207Z,53.38
2016-07-04T00:55:13.207Z,53.45
2016-07-04T00:56:13.212Z,53.74
2016-07-04T00:57:13.215Z,54.03
2016-07-04T00:58:13.216Z,53.93
2016-07-04T00:59:13.211Z,54.6
2016-07-04T01:00:13.216Z,54.41
2016-07-04T01:01:13.213Z,54.5
2016-07-04T01:02:13.216Z,55.08
2016-07-04T01:03:13.221Z,55.36
2016-07-04T01:04:13.225Z,55.56
2016-07-04T01:05:13.225Z,55.44
2016-07-04T01:06:13.281Z,56.1
2016-07-04T01:07:13.273Z,56.3
2016-07-04T01:08:13.393Z,56.3
2016-07-04T01:09:13.230Z,56.59
2016-07-04T01:10:13.230Z,57.16
2016-07-04T01:11:13.405Z,56.77
2016-07-04T01:12:13.346Z,57.35
2016-07-04T01:13:13.234Z,57.54
2016-07-04T01:14:13.233Z,57.73
2016-07-04T01:15:13.230Z,58.02
2016-07-04T01:16:13.230Z,57.92
2016-07-04T01:17:13.232Z,58.22
2016-07-04T01:18:13.234Z,58.69
2016-07-04T01:19:13.235Z,58.37
2016-07-04T01:20:13.232Z,59.08
2016-07-04T01:21:13.238Z,58.98
2016-07-04T01:22:13.240Z,59.17
2016-07-04T01:23:13.242Z,58.95
2016-07-04T01:24:13.236Z,59.23
2016-07-04T01:25:13.246Z,59.62
2016-07-04T01:26:13.246Z,59.33
2016-07-04T01:27:13.247Z,59.43
2016-07-04T01:28:13.246Z,59.23
2016-07-04T01:29:13.247Z,60.19
2016-07-04T01:30:13.254Z,60.48
2016-07-04T01:31:13.250Z,60.29
2016-07-04T01:32:13.251Z,60.19
2016-07-04T01:33:13.254Z,60.48
2016-07-04T01:34:13.251Z,60.67
2016-07-04T01:35:13.254Z,60.96
2016-07-04T01:36:13.254Z,60.77
2016-07-04T01:37:13.254Z,61.05
2016-07-04T01:38:13.254Z,61.15
2016-07-04T01:39:13.256Z,60.96
2016-07-04T01:40:13.251Z,60.58
2016-07-04T01:41:13.254Z,61.44
2016-07-04T01:42:13.254Z,61.34
2016-07-04T01:43:13.259Z,61.82
2016-07-04T01:44:13.266Z,61.98
2016-07-04T01:45:13.262Z,62.27
2016-07-04T01:46:13.258Z,62.94
2016-07-04T01:47:13.262Z,62.65
2016-07-04T01:48:13.263Z,63.23
2016-07-04T01:49:13.262Z,63.42
2016-07-04T01:50:13.266Z,63.89
2016-07-04T01:51:13.262Z,64.37
2016-07-04T01:52:13.267Z,64.56
2016-07-04T01:53:13.271Z,64.66
2016-07-04T01:54:13.264Z,64.53
2016-07-04T01:55:13.265Z,65.2
2016-07-04T01:56:13.267Z,64.91
2016-07-04T01:57:13.269Z,65.48
2016-07-04T01:58:13.271Z,65.87
2016-07-04T01:59:13.264Z,65.97
2016-07-04T02:00:13.269Z,66.25
2016-07-04T02:01:13.269Z,66.44
2016-07-04T02:02:13.273Z,66.63
2016-07-04T02:03:13.271Z,67.11
2016-07-04T02:04:13.272Z,67.02
2016-07-04T02:05:13.275Z,67.27
2016-07-04T02:06:13.279Z,67.11
2016-07-04T02:07:13.275Z,67.49
2016-07-04T02:08:13.279Z,67.46
2016-07-04T02:09:13.422Z,67.75
2016-07-04T02:10:13.283Z,68.13
2016-07-04T02:11:13.283Z,68.13
2016-07-04T02:12:13.287Z,68.51
2016-07-04T02:13:13.335Z,67.84
2016-07-04T02:14:13.385Z,68.51
2016-07-04T02:15:13.369Z,68.41
2016-07-04T02:16:13.341Z,68.61
2016-07-04T02:17:13.296Z,68.9
2016-07-04T02:18:13.391Z,69.47
2016-07-04T02:19:13.285Z,69.09
2016-07-04T02:20:13.295Z,69.18
2016-07-04T02:21:13.296Z,69.18
2016-07-04T02:22:13.292Z,69.76
2016-07-04T02:23:13.291Z,69.66
2016-07-04T02:24:13.295Z,69.95
2016-07-04T02:25:13.292Z,70.52
2016-07-04T02:26:13.300Z,70.23
2016-07-04T02:27:13.296Z,71
2016-07-04T02:28:13.301Z,70.81
2016-07-04T02:29:13.301Z,71.15
2016-07-04T02:30:13.308Z,71.28
2016-07-04T02:31:13.304Z,71.63
2016-07-04T02:32:13.304Z,71.44
2016-07-04T02:33:13.303Z,71.92
2016-07-04T02:34:13.304Z,71.82
2016-07-04T02:35:13.308Z,72.3
2016-07-04T02:36:13.309Z,72.2
2016-07-04T02:37:13.306Z,72.87
2016-07-04T02:38:13.303Z,72.68
2016-07-04T02:39:13.308Z,72.58
2016-07-04T02:40:13.305Z,72.58
2016-07-04T02:41:13.307Z,72.97
2016-07-04T02:42:13.305Z,72.78
2016-07-04T02:43:13.307Z,73.54
2016-07-04T02:44:13.311Z,73.25
2016-07-04T02:45:13.313Z,73.73
2016-07-04T02:46:13.310Z,73.54
2016-07-04T02:47:13.313Z,73.35
2016-07-04T02:48:13.307Z,73.92
2016-07-04T02:49:13.315Z,74.02
2016-07-04T02:50:13.314Z,74.4
2016-07-04T02:51:13.316Z,74.59
2016-07-04T02:52:13.324Z,74.49
2016-07-04T02:53:13.319Z,74.3
2016-07-04T02:54:13.320Z,74.98
2016-07-04T02:55:13.319Z,74.98
2016-07-04T02:56:13.320Z,74.78
2016-07-04T02:57:13.319Z,75.03
2016-07-04T02:58:13.320Z,75.07
2016-07-04T02:59:13.319Z,75.26
2016-07-04T03:00:13.317Z,75.03
2016-07-04T03:01:13.323Z,75.45
2016-07-04T03:02:13.322Z,75.54
2016-07-04T03:03:13.317Z,75.07
2016-07-04T03:04:13.321Z,75.83
2016-07-04T03:05:13.324Z,75.64
2016-07-04T03:06:13.323Z,75.83
2016-07-04T03:07:13.331Z,75.83
2016-07-04T03:08:13.330Z,75.54
2016-07-04T03:09:13.325Z,75.64
2016-07-04T03:10:13.330Z,75.74
2016-07-04T03:11:13.345Z,75.54
2016-07-04T03:12:13.333Z,75.45
2016-07-04T03:13:13.336Z,75.45
2016-07-04T03:14:13.333Z,75.74
2016-07-04T03:15:13.326Z,75.74
2016-07-04T03:16:13.328Z,75.83
2016-07-04T03:17:13.330Z,75.64
2016-07-04T03:18:13.329Z,75.45
2016-07-04T03:19:13.329Z,75.39
2016-07-04T03:20:13.335Z,75.1
2016-07-04T03:21:13.332Z,75.59
2016-07-04T03:22:13.334Z,75.49
2016-07-04T03:23:13.333Z,75.1
2016-07-04T03:24:13.333Z,75.1
2016-07-04T03:25:13.334Z,75.2
2016-07-04T03:26:13.339Z,74.91
2016-07-04T03:27:13.339Z,75.2
2016-07-04T03:28:13.344Z,75.39
2016-07-04T03:29:13.343Z,75.01
2016-07-04T03:30:13.343Z,75.01
2016-07-04T03:31:13.343Z,75.39
2016-07-04T03:32:13.339Z,75.2
2016-07-04T03:33:12.715Z,75.3
2016-07-04T03:34:13.342Z,74.91
2016-07-04T03:35:13.348Z,74.82
2016-07-04T03:36:13.343Z,75.01
2016-07-04T03:37:13.343Z,74.63
2016-07-04T03:38:13.342Z,75.1
2016-07-04T03:39:13.351Z,75.01
2016-07-04T03:40:13.346Z,74.95
2016-07-04T03:41:13.343Z,74.82
2016-07-04T03:42:13.348Z,75.01
2016-07-04T03:43:13.343Z,75.01
2016-07-04T03:44:13.346Z,75.24
2016-07-04T03:45:13.345Z,75.01
2016-07-04T03:46:13.346Z,74.85
2016-07-04T03:47:13.346Z,75.05
2016-07-04T03:48:13.350Z,74.95
2016-07-04T03:49:13.362Z,75.05
2016-07-04T03:50:13.354Z,74.57
2016-07-04T03:51:13.354Z,74.57
2016-07-04T03:52:13.350Z,74.28
2016-07-04T03:53:13.354Z,74.28
2016-07-04T03:54:13.357Z,74.38
2016-07-04T03:55:13.353Z,74.38
2016-07-04T03:56:13.351Z,74.28
2016-07-04T03:57:13.353Z,74.66
2016-07-04T03:58:13.361Z,74.28
2016-07-04T03:59:13.357Z,74.48
2016-07-04T04:00:13.358Z,74.57
2016-07-04T04:01:13.361Z,74.57
2016-07-04T04:02:13.361Z,74.57
2016-07-04T04:03:13.356Z,74.76
2016-07-04T04:04:13.365Z,74.57
2016-07-04T04:05:13.361Z,74.61
2016-07-04T04:06:13.361Z,74.38
2016-07-04T04:07:12.750Z,74.51
2016-07-04T04:08:13.365Z,74.57
2016-07-04T04:09:13.364Z,74.7
2016-07-04T04:10:13.362Z,74.61
2016-07-04T04:11:13.361Z,74.41
2016-07-04T04:12:13.365Z,74.61
2016-07-04T04:13:13.369Z,74.41
2016-07-04T04:14:13.366Z,74.41
2016-07-04T04:15:13.370Z,74.41
2016-07-04T04:16:13.367Z,74.41
2016-07-04T04:17:13.372Z,74.41
2016-07-04T04:18:13.473Z,74.41
2016-07-04T04:19:13.373Z,74.32
2016-07-04T04:20:12.750Z,74.32
2016-07-04T04:21:13.378Z,74.9
2016-07-04T04:22:13.427Z,74.51
2016-07-04T04:23:13.378Z,74.32
2016-07-04T04:24:12.754Z,74.55
2016-07-04T04:25:13.379Z,74.65
2016-07-04T04:26:13.375Z,74.7
2016-07-04T04:27:13.387Z,74.26
2016-07-04T04:28:13.379Z,74.07
2016-07-04T04:29:13.379Z,74.26
2016-07-04T04:30:13.385Z,74.16
2016-07-04T04:31:13.380Z,74.16
2016-07-04T04:32:13.381Z,73.69
2016-07-04T04:33:13.380Z,73.59
2016-07-04T04:34:13.390Z,73.59
2016-07-04T04:35:13.383Z,73.97
2016-07-04T04:36:13.388Z,73.59
2016-07-04T04:37:13.386Z,73.3
2016-07-04T04:38:13.390Z,73.59
2016-07-04T04:39:13.394Z,73.79
2016-07-04T04:40:13.390Z,73.59
2016-07-04T04:41:13.390Z,74.07
2016-07-04T04:42:13.388Z,73.5
2016-07-04T04:43:13.400Z,73.59
2016-07-04T04:44:13.391Z,73.59
2016-07-04T04:45:13.391Z,73.79
2016-07-04T04:46:12.765Z,73.63
2016-07-04T04:47:13.395Z,73.02
2016-07-04T04:48:13.396Z,73.05
2016-07-04T04:49:13.397Z,72.92
2016-07-04T04:50:13.395Z,73.24
2016-07-04T04:51:13.399Z,72.86
2016-07-04T04:52:13.393Z,72.67
2016-07-04T04:53:13.403Z,73.05
2016-07-04T04:54:13.407Z,72.77
2016-07-04T04:55:13.403Z,72.48
2016-07-04T04:56:13.404Z,72.67
2016-07-04T04:57:13.403Z,72.29
2016-07-04T04:58:13.404Z,72.42
2016-07-04T04:59:13.404Z,72.23
2016-07-04T05:00:13.408Z,72.03
2016-07-04T05:01:13.408Z,72.13
2016-07-04T05:02:13.407Z,71.84
2016-07-04T05:03:13.407Z,72.23
2016-07-04T05:04:13.408Z,71.94
2016-07-04T05:05:13.408Z,71.66
2016-07-04T05:06:13.408Z,71.37
2016-07-04T05:07:13.408Z,71.46
2016-07-04T05:08:13.413Z,71.46
2016-07-04T05:09:13.408Z,71.37
2016-07-04T05:10:13.413Z,71.27
2016-07-04T05:11:13.412Z,70.98
2016-07-04T05:12:13.413Z,70.92
2016-07-04T05:13:13.414Z,71.02
2016-07-04T05:14:13.417Z,70.35
2016-07-04T05:15:13.417Z,70.73
2016-07-04T05:16:13.413Z,70.35
2016-07-04T05:17:13.417Z,70.06
2016-07-04T05:18:13.417Z,69.42
2016-07-04T05:19:13.417Z,69.42
2016-07-04T05:20:13.420Z,68.95
2016-07-04T05:21:13.420Z,68.85
2016-07-04T05:22:13.420Z,68.08
2016-07-04T05:23:13.415Z,68.27
2016-07-04T05:24:13.415Z,68.08
2016-07-04T05:25:13.419Z,67.92
2016-07-04T05:26:13.422Z,67.44
2016-07-04T05:27:13.418Z,66.96
2016-07-04T05:28:13.422Z,67.06
2016-07-04T05:29:13.422Z,66.96
2016-07-04T05:30:13.421Z,66.96
2016-07-04T05:31:13.429Z,66.67
2016-07-04T05:32:13.422Z,66.52
2016-07-04T05:33:13.428Z,66.52
2016-07-04T05:34:12.801Z,66.03
2016-07-04T05:35:13.422Z,65.65
2016-07-04T05:36:13.898Z,65.65
2016-07-04T05:38:26.475Z,64.89
2016-07-04T05:39:14.269Z,64.34
2016-07-04T05:40:13.425Z,63.67
2016-07-04T05:41:13.424Z,63.76
2016-07-04T05:42:13.432Z,63.48
2016-07-04T05:43:13.427Z,62.81
2016-07-04T05:44:12.823Z,63.22
2016-07-04T05:45:13.428Z,62.55
2016-07-04T05:46:12.800Z,62.84
2016-07-04T05:47:12.806Z,62.35
2016-07-04T05:48:13.425Z,61.68
2016-07-04T05:49:13.633Z,61.61
2016-07-04T05:50:13.430Z,60.75
2016-07-04T05:51:13.429Z,61.04
2016-07-04T05:52:12.815Z,60.37
2016-07-04T05:53:13.513Z,60.39
2016-07-04T05:54:12.806Z,59.53
2016-07-04T05:55:13.439Z,59.63
2016-07-04T05:56:13.433Z,59.53
2016-07-04T05:57:13.436Z,59.34
2016-07-04T05:58:12.811Z,58.5
2016-07-04T05:59:12.817Z,58.4
2016-07-04T06:00:13.442Z,57.83
2016-07-04T06:01:13.442Z,57.18
2016-07-04T06:02:13.441Z,57.18
2016-07-04T06:03:13.443Z,55.87
2016-07-04T06:04:13.444Z,55.87
2016-07-04T06:05:13.442Z,54.93
2016-07-04T06:06:13.448Z,53.87
2016-07-04T06:07:13.463Z,53.39
2016-07-04T06:08:13.447Z,53.03
2016-07-04T06:09:12.824Z,52.06
2016-07-04T06:10:12.818Z,51.39
2016-07-04T06:11:13.704Z,51.29
2016-07-04T06:12:13.447Z,50.93
2016-07-04T06:13:12.822Z,50.06
2016-07-04T06:14:13.451Z,49.8
2016-07-04T06:15:12.837Z,49.02
2016-07-04T06:16:12.829Z,48.64
2016-07-04T06:17:13.458Z,47.87
2016-07-04T06:18:13.504Z,47.8
2016-07-04T06:19:13.455Z,46.64
2016-07-04T06:20:13.460Z,46.17
2016-07-04T06:21:13.462Z,45.21
2016-07-04T06:22:12.845Z,44.94
2016-07-04T06:23:13.466Z,44.84
2016-07-04T06:24:13.464Z,44.07
2016-07-04T06:25:13.462Z,43.9
2016-07-04T06:26:13.466Z,43.13
2016-07-04T06:27:12.842Z,41.89
2016-07-04T06:28:13.470Z,41.04
2016-07-04T06:29:12.850Z,39.69
2016-07-04T06:30:12.843Z,37.87
2016-07-04T06:31:12.845Z,37.23
2016-07-04T06:32:13.473Z,35.3
2016-07-04T06:33:13.469Z,33.39
2016-07-04T06:34:13.470Z,32.75
2016-07-04T06:35:13.484Z,32.08
2016-07-04T06:36:12.848Z,31.22
2016-07-04T06:37:13.476Z,30.54
2016-07-04T06:38:13.498Z,29.6
2016-07-04T06:39:13.472Z,28.93
2016-07-04T06:40:13.483Z,28.55
2016-07-04T06:41:13.479Z,27.68
2016-07-04T06:42:13.476Z,27.87
2016-07-04T06:43:13.687Z,27.97
2016-07-04T06:44:13.489Z,27.69
2016-07-04T06:45:12.852Z,27.89
2016-07-04T06:46:12.868Z,27.48
2016-07-04T06:47:13.513Z,27.11
2016-07-04T06:48:13.475Z,26.62
2016-07-04T06:49:13.753Z,26.13
2016-07-04T06:50:13.481Z,25.65
2016-07-04T06:51:13.503Z,25.65
2016-07-04T06:52:13.482Z,25.36
2016-07-04T06:53:13.484Z,25.54
2016-07-04T06:54:12.862Z,25.16
2016-07-04T06:55:12.866Z,25.07
2016-07-04T06:56:13.491Z,25.07
2016-07-04T06:57:13.492Z,24.58
2016-07-04T06:58:13.495Z,24.21
2016-07-04T06:59:13.501Z,23.35
2016-07-04T07:00:13.499Z,22.87
2016-07-04T07:01:13.499Z,21.23
2016-07-04T07:02:13.500Z,20.47
2016-07-04T07:03:13.513Z,19.22
2016-07-04T07:04:13.516Z,18.16
2016-07-04T07:05:13.503Z,16.91
2016-07-04T07:06:13.523Z,16.14
2016-07-04T07:07:12.874Z,15.08
2016-07-04T07:08:12.876Z,14.6
2016-07-04T07:09:12.881Z,13.92
2016-07-04T07:10:13.503Z,13.44
2016-07-04T07:11:13.503Z,13.06
2016-07-04T07:12:13.514Z,12.67
2016-07-04T07:13:13.507Z,12.68
2016-07-04T07:14:13.509Z,12.18
2016-07-04T07:15:13.509Z,12.08
2016-07-04T07:16:13.512Z,11.59
2016-07-04T07:17:13.518Z,11.69
2016-07-04T07:18:13.559Z,11.9
2016-07-04T07:19:13.520Z,11.5
2016-07-04T07:20:13.523Z,10.9
2016-07-04T07:21:13.519Z,10.9
2016-07-04T07:22:12.931Z,10.61
2016-07-04T07:23:12.956Z,10.71
2016-07-04T07:24:13.537Z,10.6
2016-07-04T07:25:12.900Z,10.01
2016-07-04T07:26:12.900Z,10.11
2016-07-04T07:27:13.552Z,10.4
2016-07-04T07:28:12.908Z,10.3
2016-07-04T07:29:13.536Z,10.4
2016-07-04T07:30:12.908Z,9.91
2016-07-04T07:31:13.536Z,10.21
2016-07-04T07:32:13.540Z,9.92
2016-07-04T07:33:13.540Z,9.72
2016-07-04T07:34:13.545Z,9.22
2016-07-04T07:35:12.920Z,9.33
2016-07-04T07:36:13.540Z,9.62
2016-07-04T07:37:13.543Z,10.3
2016-07-04T07:38:13.549Z,10.69
2016-07-04T07:39:13.548Z,10.39
2016-07-04T07:40:13.557Z,10.68
2016-07-04T07:41:13.553Z,10.49
2016-07-04T07:42:13.553Z,10.2
2016-07-04T07:43:12.926Z,10.1
2016-07-04T07:44:13.557Z,10.21
2016-07-04T07:45:13.561Z,10.21
2016-07-04T07:46:12.933Z,9.61
2016-07-04T07:47:13.559Z,9.31
2016-07-04T07:48:13.564Z,8.92
2016-07-04T07:49:12.937Z,9.12
2016-07-04T07:50:13.631Z,8.72
2016-07-04T07:51:13.566Z,8.92
2016-07-04T07:52:13.571Z,8.82
2016-07-04T07:53:13.677Z,8.33
2016-07-04T07:54:13.574Z,8.62
2016-07-04T07:55:13.599Z,8.43
2016-07-04T07:56:13.574Z,8.23
2016-07-04T07:57:13.578Z,8.03
2016-07-04T07:58:12.955Z,8.14
2016-07-04T07:59:12.954Z,8.23
2016-07-04T08:00:13.587Z,8.14
2016-07-04T08:01:13.586Z,8.34
2016-07-04T08:02:13.584Z,7.93
2016-07-04T08:03:13.586Z,8.43
2016-07-04T08:04:13.586Z,8.83
2016-07-04T08:05:12.964Z,8.33
2016-07-04T08:06:13.596Z,8.14
2016-07-04T08:07:12.970Z,8.43
2016-07-04T08:08:13.596Z,8.53
2016-07-04T08:09:13.598Z,8.83
2016-07-04T08:10:13.603Z,8.53
2016-07-04T08:11:13.602Z,8.63
2016-07-04T08:12:13.607Z,8.53
2016-07-04T08:13:13.606Z,8.53
2016-07-04T08:14:13.618Z,8.53
2016-07-04T08:15:13.606Z,8.53
2016-07-04T08:16:12.982Z,8.03
2016-07-04T08:17:13.613Z,8.23
2016-07-04T08:18:12.985Z,8.34
2016-07-04T08:19:12.989Z,7.93
2016-07-04T08:20:13.614Z,8.03
2016-07-04T08:21:13.617Z,8.14
2016-07-04T08:22:12.988Z,8.33
2016-07-04T08:23:13.610Z,7.93
2016-07-04T08:24:12.995Z,8.13
2016-07-04T08:25:13.621Z,8.33
2016-07-04T08:26:13.633Z,8.03
2016-07-04T08:27:13.628Z,8.82
2016-07-04T08:28:13.005Z,8.03
2016-07-04T08:29:13.643Z,8.53
2016-07-04T08:30:13.009Z,8.33
2016-07-04T08:31:13.010Z,8.42
2016-07-04T08:32:13.015Z,8.72
2016-07-04T08:33:13.011Z,8.62
2016-07-04T08:34:13.018Z,8.33
2016-07-04T08:35:13.640Z,7.93
2016-07-04T08:36:13.657Z,7.82
2016-07-04T08:37:13.644Z,8.02
2016-07-04T08:38:13.022Z,8.22
2016-07-04T08:39:13.025Z,7.63
2016-07-04T08:40:13.658Z,7.83
2016-07-04T08:41:13.669Z,7.63
2016-07-04T08:42:13.029Z,7.83
2016-07-04T08:43:13.653Z,7.73
2016-07-04T08:44:13.659Z,7.14
2016-07-04T08:46:48.874Z,7.83
2016-07-04T08:48:17.624Z,8.42
2016-07-04T08:48:48.868Z,8.33
2016-07-04T08:49:49.497Z,8.82
2016-07-04T08:50:49.612Z,9.01
2016-07-04T08:51:49.507Z,9.01
2016-07-04T08:53:49.232Z,9.6
2016-07-04T08:54:57.781Z,9.41
2016-07-04T08:55:49.076Z,9.31
2016-07-04T08:57:14.399Z,9.6
2016-07-04T08:57:49.514Z,9.5
2016-07-04T08:58:53.534Z,9.89
2016-07-04T08:59:48.896Z,10.09
2016-07-04T09:26:01.025Z,13.01
2016-07-04T09:27:01.035Z,12.91
2016-07-04T09:28:01.034Z,13.1
2016-07-04T09:29:01.038Z,12.91
2016-07-04T09:30:01.039Z,12.81
2016-07-04T09:31:01.041Z,12.71
2016-07-04T09:32:01.051Z,12.72
2016-07-04T09:33:01.044Z,13.2
2016-07-04T09:34:01.045Z,12.81
2016-07-04T09:35:01.047Z,13.4
2016-07-04T09:36:01.052Z,13.09
2016-07-04T09:37:01.050Z,13.28
2016-07-04T09:38:01.054Z,13.67
2016-07-04T09:39:01.052Z,13.76
2016-07-04T09:40:00.430Z,13.96
2016-07-04T09:41:01.068Z,13.96
2016-07-04T09:42:01.072Z,13.67
2016-07-04T09:43:01.060Z,13.76
2016-07-04T09:44:01.097Z,13.57
2016-07-04T09:45:01.068Z,13.95
2016-07-04T09:46:01.067Z,14.24
2016-07-04T09:47:01.073Z,14.33
2016-07-04T09:48:01.071Z,14.91
2016-07-04T09:49:01.073Z,15
2016-07-04T09:50:01.084Z,16.08
2016-07-04T09:51:01.086Z,16.66
2016-07-04T09:52:01.081Z,17.14
2016-07-04T09:53:01.087Z,17.32
2016-07-04T09:54:01.091Z,18
2016-07-04T09:55:00.464Z,18.77
2016-07-04T09:56:01.110Z,19.26
2016-07-04T09:57:01.096Z,19.93
2016-07-04T09:58:01.107Z,21.29
2016-07-04T09:59:01.106Z,21.77
2016-07-04T10:00:01.107Z,21.46
2016-07-04T10:01:00.484Z,22.23
2016-07-04T10:02:01.113Z,22.91
2016-07-04T10:03:01.136Z,24.07
2016-07-04T10:04:01.117Z,24.05
2016-07-04T10:05:01.126Z,23.85
2016-07-04T10:06:00.498Z,23.85
2016-07-04T10:07:01.125Z,23.75
2016-07-04T10:08:01.155Z,23.95
2016-07-04T10:09:01.130Z,23.94
2016-07-04T10:10:00.492Z,24.52
2016-07-04T10:11:01.147Z,24.72
2016-07-04T10:12:01.142Z,24.9
2016-07-04T10:13:00.511Z,25.19
2016-07-04T10:14:01.142Z,25.29
2016-07-04T10:15:01.141Z,25.38
2016-07-04T10:16:01.142Z,25.09
2016-07-04T10:17:00.512Z,25.57
2016-07-04T10:18:01.147Z,25.67
2016-07-04T10:19:01.250Z,25.67
2016-07-04T10:20:01.156Z,25.65
2016-07-04T10:21:01.153Z,26.23
2016-07-04T10:22:01.154Z,26.72
2016-07-04T10:23:01.163Z,27.4
2016-07-04T10:24:01.156Z,27.89
2016-07-04T10:25:01.162Z,27.58
2016-07-04T10:26:00.548Z,27.58
2016-07-04T10:27:01.168Z,27.48
2016-07-04T10:28:00.544Z,28.17
2016-07-04T10:29:01.175Z,28.36
2016-07-04T10:30:01.179Z,28.64
2016-07-04T10:31:01.172Z,29.02
2016-07-04T10:32:01.181Z,29.22
2016-07-04T10:33:01.184Z,30
2016-07-04T10:34:01.190Z,30.19
2016-07-04T10:35:01.187Z,30.87
2016-07-04T10:36:01.185Z,31.05
2016-07-04T10:37:01.195Z,30.95
2016-07-04T10:38:01.195Z,31.26
2016-07-04T10:39:01.212Z,30.76
2016-07-04T10:40:01.200Z,30.95
2016-07-04T10:41:01.208Z,30.57
2016-07-04T10:42:01.206Z,30.08
2016-07-04T10:43:01.204Z,30.08
2016-07-04T10:44:01.210Z,30.37
2016-07-04T10:45:00.593Z,30.37
2016-07-04T10:46:01.216Z,30.76
2016-07-04T10:47:01.220Z,30.95
2016-07-04T10:48:01.225Z,30.94
2016-07-04T10:49:01.228Z,30.94
2016-07-04T10:50:01.221Z,30.94
2016-07-04T10:51:01.228Z,31.32
2016-07-04T10:52:01.229Z,31.04
2016-07-04T10:53:01.237Z,31.04
2016-07-04T10:54:01.233Z,30.57
2016-07-04T10:55:01.249Z,30.85
2016-07-04T10:56:01.241Z,31.13
2016-07-04T10:57:01.241Z,31.23
2016-07-04T10:58:01.250Z,31.32
2016-07-04T10:59:01.247Z,32
2016-07-04T11:00:01.253Z,32
2016-07-04T11:01:01.252Z,32.78
2016-07-04T11:02:01.261Z,31.91
2016-07-04T11:03:01.257Z,31.32
2016-07-04T11:04:01.257Z,31.13
2016-07-04T11:05:01.261Z,31.42
2016-07-04T11:06:01.262Z,32
2016-07-04T11:07:01.270Z,32.1
2016-07-04T11:08:01.261Z,31.91
2016-07-04T11:09:01.269Z,32
2016-07-04T11:10:01.273Z,31.62
2016-07-04T11:11:01.267Z,31.71
2016-07-04T11:12:01.279Z,31.7
2016-07-04T11:13:01.277Z,31.6
2016-07-04T11:14:01.277Z,31.79
2016-07-04T11:15:01.283Z,31.91
2016-07-04T11:16:01.286Z,31.21
2016-07-04T11:17:01.290Z,31.79
2016-07-04T11:18:00.667Z,31.89
2016-07-04T11:19:01.290Z,31.7
2016-07-04T11:20:00.678Z,31.99
2016-07-04T11:21:01.298Z,31.6
2016-07-04T11:22:01.295Z,31.41
2016-07-04T11:23:00.669Z,31.41
2016-07-04T11:24:01.302Z,31.89
2016-07-04T11:25:01.300Z,32.49
2016-07-04T11:26:01.306Z,32.57
2016-07-04T11:27:01.305Z,31.89
2016-07-04T11:28:01.306Z,32
2016-07-04T11:29:01.319Z,32.68
2016-07-04T11:30:01.310Z,32.68
2016-07-04T11:31:01.318Z,31.91
2016-07-04T11:32:00.698Z,32.78
2016-07-04T11:33:01.327Z,32.78
2016-07-04T11:34:01.322Z,32.87
2016-07-04T11:35:01.328Z,33.36
2016-07-04T11:36:01.330Z,33.26
2016-07-04T11:37:00.705Z,32.97
2016-07-04T11:38:01.332Z,33.26
2016-07-04T11:39:01.338Z,33.46
2016-07-04T11:40:01.334Z,34.04
2016-07-04T11:41:01.343Z,33.65
2016-07-04T11:42:00.718Z,33.07
2016-07-04T11:43:01.346Z,34.14
2016-07-04T11:44:01.351Z,33.38
2016-07-04T11:45:01.347Z,32.89
2016-07-04T11:46:00.726Z,32.99
2016-07-04T11:47:01.359Z,32.7
2016-07-04T11:48:01.362Z,32.6
2016-07-04T11:49:01.360Z,32.41
2016-07-04T11:50:01.354Z,31.92
2016-07-04T11:51:01.362Z,31.73
2016-07-04T11:52:00.735Z,31.24
2016-07-04T11:53:01.371Z,30.47
2016-07-04T11:54:01.371Z,30.08
2016-07-04T11:55:00.743Z,30.27
2016-07-04T11:56:01.370Z,30.66
2016-07-04T11:57:01.371Z,30.85
2016-07-04T11:58:01.371Z,31.71
2016-07-04T11:59:01.384Z,31.53
2016-07-04T12:00:01.378Z,32.02
2016-07-04T12:01:01.379Z,32.5
2016-07-04T12:02:01.389Z,33.46
2016-07-04T12:03:00.767Z,34.23
2016-07-04T12:04:01.396Z,34.23
2016-07-04T12:05:01.392Z,34.04
2016-07-04T12:06:01.405Z,33.75
2016-07-04T12:07:01.399Z,34.33
2016-07-04T12:08:01.399Z,33.75
2016-07-04T12:09:01.403Z,33.18
2016-07-04T12:10:01.411Z,32.49
2016-07-04T12:11:01.408Z,32.1
2016-07-04T12:12:01.418Z,32
2016-07-04T12:13:01.415Z,32
2016-07-04T12:14:01.415Z,32.99
2016-07-04T12:15:01.420Z,33.07
2016-07-04T12:16:01.424Z,33.09
2016-07-04T12:17:01.420Z,32.97
2016-07-04T12:18:00.801Z,33.47
2016-07-04T12:19:01.576Z,33.09
2016-07-04T12:20:00.800Z,32.99
2016-07-04T12:21:01.428Z,32.99
2016-07-04T12:22:01.435Z,32.79
2016-07-04T12:23:01.437Z,33.09
2016-07-04T12:24:01.435Z,33.09
2016-07-04T12:25:01.441Z,32.79
2016-07-04T12:26:01.452Z,32.5
2016-07-04T12:27:00.822Z,31.44
2016-07-04T12:28:01.450Z,32.12
2016-07-04T12:29:01.451Z,32.02
2016-07-04T12:30:01.465Z,32.02
2016-07-04T12:31:01.455Z,32.21
2016-07-04T12:32:01.460Z,32.02
2016-07-04T12:33:01.462Z,32.21
2016-07-04T12:34:01.478Z,31.34
2016-07-04T12:35:01.472Z,31.73
2016-07-04T12:36:01.467Z,31.05
2016-07-04T12:37:01.470Z,31.05
2016-07-04T12:38:01.475Z,30.85
2016-07-04T12:39:01.475Z,30.37
2016-07-04T12:40:01.475Z,30.47
2016-07-04T12:41:01.479Z,30.58
2016-07-04T12:42:01.479Z,30.77
2016-07-04T12:43:01.483Z,30.87
2016-07-04T12:44:01.487Z,31.63
2016-07-04T12:45:01.484Z,31.44
2016-07-04T12:46:01.494Z,31.73
2016-07-04T12:47:01.495Z,31.82
2016-07-04T12:48:01.496Z,32.6
2016-07-04T12:49:00.871Z,32.89
2016-07-04T12:50:01.504Z,32.79
2016-07-04T12:51:01.503Z,32.99
2016-07-04T12:52:01.503Z,32.6
2016-07-04T12:53:00.886Z,32.6
2016-07-04T12:54:01.510Z,31.92
2016-07-04T12:55:01.511Z,31.92
2016-07-04T12:56:01.514Z,32.1
2016-07-04T12:57:01.514Z,32.02
2016-07-04T12:58:01.514Z,32.99
2016-07-04T12:59:00.903Z,33.09
2016-07-04T13:00:01.523Z,32.89
2016-07-04T13:01:01.526Z,32.12
2016-07-04T13:02:01.522Z,31.92
2016-07-04T13:03:01.526Z,31.05
2016-07-04T13:04:00.905Z,31.24
2016-07-04T13:05:01.529Z,31.15
2016-07-04T13:06:01.534Z,31.15
2016-07-04T13:07:01.542Z,31.92
2016-07-04T13:08:01.538Z,31.44
2016-07-04T13:09:00.918Z,31.92
2016-07-04T13:10:00.916Z,31.42
2016-07-04T13:11:01.549Z,31.92
2016-07-04T13:12:01.545Z,32.1
2016-07-04T13:13:00.925Z,31.71
2016-07-04T13:14:01.554Z,31.91
2016-07-04T13:15:01.554Z,31.81
2016-07-04T13:16:01.561Z,31.71
2016-07-04T13:17:01.557Z,32.59
2016-07-04T13:18:01.558Z,32.59
2016-07-04T13:19:00.934Z,32.59
2016-07-04T13:20:01.566Z,32.47
2016-07-04T13:21:01.571Z,31.71
2016-07-04T13:22:01.574Z,32
2016-07-04T13:23:01.570Z,31.52
2016-07-04T13:24:01.578Z,30.85
2016-07-04T13:25:01.579Z,30.66
2016-07-04T13:26:00.954Z,30.76
2016-07-04T13:27:00.953Z,30.37